createdAt,value
2019-03-12T00:00:03.304Z,1.9
2019-03-12T00:01:03.430Z,1.9
2019-03-12T00:02:03.154Z,1.9
2019-03-12T00:03:03.516Z,1.8
2019-03-12T00:04:02.972Z,1.8
2019-03-12T00:05:03.642Z,1.8
2019-03-12T00:06:03.210Z,1.8
2019-03-12T00:07:03.614Z,1.8
2019-03-12T00:08:03.401Z,1.7
2019-03-12T00:09:03.017Z,1.7
2019-03-12T00:10:03.309Z,1.6
2019-03-12T00:11:03.434Z,1.6
2019-03-12T00:12:03.145Z,1.6
2019-03-12T00:13:03.647Z,1.6
2019-03-12T00:14:03.415Z,1.7
2019-03-12T00:15:03.330Z,1.7
2019-03-12T00:16:03.364Z,1.6
2019-03-12T00:17:03.432Z,1.6
2019-03-12T00:18:03.247Z,1.6
2019-03-12T00:19:03.070Z,1.6
2019-03-12T00:20:02.994Z,1.6
2019-03-12T00:21:03.269Z,1.6
2019-03-12T00:22:03.087Z,1.6
2019-03-12T00:23:03.231Z,1.6
2019-03-12T00:24:02.890Z,1.6
2019-03-12T00:25:03.330Z,1.6
2019-03-12T00:26:03.885Z,1.6
2019-03-12T00:27:03.169Z,1.6
2019-03-12T00:28:03.096Z,1.6
2019-03-12T00:29:03.140Z,1.5
2019-03-12T00:30:03.808Z,1.5
2019-03-12T00:31:03.166Z,1.6
2019-03-12T00:32:02.755Z,1.6
2019-03-12T00:33:02.996Z,1.5
2019-03-12T00:34:03.128Z,1.4
2019-03-12T00:35:02.835Z,1.4
2019-03-12T00:36:03.242Z,1.4
2019-03-12T00:37:03.303Z,1.4
2019-03-12T00:38:02.786Z,1.4
2019-03-12T00:39:03.142Z,1.4
2019-03-12T00:40:03.093Z,1.4
2019-03-12T00:41:02.873Z,1.4
2019-03-12T00:42:02.895Z,1.4
2019-03-12T00:43:03.152Z,1.4
2019-03-12T00:44:03.709Z,1.4
2019-03-12T00:45:03.126Z,1.3
2019-03-12T00:46:02.689Z,1.3
2019-03-12T00:47:03.145Z,1.3
2019-03-12T00:48:03.653Z,1.3
2019-03-12T00:49:03.894Z,1.2
2019-03-12T00:50:03.164Z,1.3
2019-03-12T00:51:03.888Z,1.3
2019-03-12T00:52:02.743Z,1.3
2019-03-12T00:53:03.653Z,1.2
2019-03-12T00:54:03.138Z,1.3
2019-03-12T00:55:03.808Z,1.3
2019-03-12T00:56:03.770Z,1.2
2019-03-12T00:57:03.855Z,1.1
2019-03-12T00:58:03.642Z,1.2
2019-03-12T00:59:03.597Z,1.1
2019-03-12T01:00:03.441Z,1.1
2019-03-12T01:01:03.442Z,1.1
2019-03-12T01:02:03.368Z,1.1
2019-03-12T01:03:03.050Z,1.1
2019-03-12T01:04:03.130Z,1.2
2019-03-12T01:05:03.899Z,1.2
2019-03-12T01:06:03.440Z,1.1
2019-03-12T01:07:03.764Z,1.1
2019-03-12T01:08:03.008Z,1.1
2019-03-12T01:09:03.169Z,1.1
2019-03-12T01:10:03.432Z,1.1
2019-03-12T01:11:03.426Z,1.1
2019-03-12T01:12:03.372Z,1.1
2019-03-12T01:13:03.511Z,1.1
2019-03-12T01:14:02.954Z,1.1
2019-03-12T01:15:03.219Z,1.1
2019-03-12T01:16:03.331Z,1.1
2019-03-12T01:17:03.118Z,1.1
2019-03-12T01:18:03.127Z,1.1
2019-03-12T01:19:03.165Z,1.1
2019-03-12T01:20:02.981Z,1.1
2019-03-12T01:21:03.072Z,1.1
2019-03-12T01:22:03.288Z,1.1
2019-03-12T01:23:03.327Z,1.1
2019-03-12T01:24:03.233Z,1.1
2019-03-12T01:25:03.016Z,1.1
2019-03-12T01:26:03.023Z,1.1
2019-03-12T01:27:02.815Z,1.1
2019-03-12T01:28:02.925Z,1.2
2019-03-12T01:29:03.027Z,1.2
2019-03-12T01:30:02.976Z,1.2
2019-03-12T01:31:03.223Z,1.2
2019-03-12T01:32:02.758Z,1.2
2019-03-12T01:33:03.017Z,1.2
2019-03-12T01:34:03.072Z,1.2
2019-03-12T01:35:03.128Z,1.3
2019-03-12T01:36:02.791Z,1.3
2019-03-12T01:37:03.027Z,1.3
2019-03-12T01:38:03.290Z,1.3
2019-03-12T01:39:02.526Z,1.3
2019-03-12T01:40:02.978Z,1.3
2019-03-12T01:41:03.018Z,1.3
2019-03-12T01:42:03.309Z,1.3
2019-03-12T01:43:03.061Z,1.3
2019-03-12T01:44:03.006Z,1.3
2019-03-12T01:45:03.120Z,1.3
2019-03-12T01:46:03.781Z,1.3
2019-03-12T01:47:03.876Z,1.3
2019-03-12T01:48:02.981Z,1.3
2019-03-12T01:49:03.057Z,1.3
2019-03-12T01:50:03.844Z,1.3
2019-03-12T01:51:03.083Z,1.4
2019-03-12T01:52:03.314Z,1.4
2019-03-12T01:53:03.545Z,1.4
2019-03-12T01:54:03.655Z,1.4
2019-03-12T01:55:03.695Z,1.4
2019-03-12T01:56:03.540Z,1.4
2019-03-12T01:57:03.389Z,1.4
2019-03-12T01:58:03.537Z,1.4
2019-03-12T01:59:03.623Z,1.5
2019-03-12T02:00:03.833Z,1.5
2019-03-12T02:01:03.219Z,1.5
2019-03-12T02:02:03.843Z,1.5
2019-03-12T02:03:03.226Z,1.6
2019-03-12T02:04:03.608Z,1.6
2019-03-12T02:05:03.593Z,1.6
2019-03-12T02:06:03.541Z,1.6
2019-03-12T02:07:03.151Z,1.6
2019-03-12T02:08:03.206Z,1.6
2019-03-12T02:09:03.207Z,1.6
2019-03-12T02:10:03.245Z,1.6
2019-03-12T02:11:03.263Z,1.6
2019-03-12T02:12:03.413Z,1.6
2019-03-12T02:13:03.385Z,1.6
2019-03-12T02:14:03.097Z,1.7
2019-03-12T02:15:03.567Z,1.7
2019-03-12T02:16:03.123Z,1.7
2019-03-12T02:17:03.094Z,1.7
2019-03-12T02:18:03.371Z,1.8
2019-03-12T02:19:03.152Z,1.7
2019-03-12T02:20:02.830Z,1.7
2019-03-12T02:21:02.852Z,1.8
2019-03-12T02:22:03.041Z,1.7
2019-03-12T02:23:02.937Z,1.8
2019-03-12T02:24:03.179Z,1.8
2019-03-12T02:25:03.124Z,1.8
2019-03-12T02:26:02.894Z,1.8
2019-03-12T02:27:03.729Z,1.8
2019-03-12T02:28:02.944Z,1.8
2019-03-12T02:29:02.132Z,1.8
2019-03-12T02:30:02.990Z,1.8
2019-03-12T02:31:02.701Z,1.8
2019-03-12T02:32:03.816Z,1.8
2019-03-12T02:33:02.865Z,1.8
2019-03-12T02:34:02.879Z,1.9
2019-03-12T02:35:02.944Z,1.8
2019-03-12T02:36:03.014Z,1.8
2019-03-12T02:37:02.961Z,1.8
2019-03-12T02:38:03.528Z,1.8
2019-03-12T02:39:03.720Z,1.8
2019-03-12T02:40:03.741Z,1.8
2019-03-12T02:41:02.509Z,1.8
2019-03-12T02:42:03.289Z,1.8
2019-03-12T02:43:03.513Z,1.8
2019-03-12T02:44:03.256Z,1.8
2019-03-12T02:45:03.407Z,1.8
2019-03-12T02:46:03.148Z,1.8
2019-03-12T02:47:03.546Z,1.8
2019-03-12T02:48:03.813Z,1.8
2019-03-12T02:49:03.702Z,1.8
2019-03-12T02:50:03.541Z,1.9
2019-03-12T02:51:02.865Z,1.9
2019-03-12T02:52:03.239Z,1.8
2019-03-12T02:53:03.065Z,1.8
2019-03-12T02:54:03.279Z,1.9
2019-03-12T02:55:03.498Z,1.9
2019-03-12T02:56:03.299Z,1.9
2019-03-12T02:57:03.336Z,1.9
2019-03-12T02:58:03.218Z,1.9
2019-03-12T02:59:03.348Z,1.9
2019-03-12T03:00:03.253Z,1.9
2019-03-12T03:01:03.178Z,1.9
2019-03-12T03:02:02.839Z,1.9
2019-03-12T03:03:03.084Z,1.9
2019-03-12T03:04:02.990Z,1.9
2019-03-12T03:05:03.581Z,1.9
2019-03-12T03:06:02.840Z,1.9
2019-03-12T03:07:02.809Z,2
2019-03-12T03:08:03.484Z,1.9
2019-03-12T03:09:03.656Z,1.9
2019-03-12T03:10:03.083Z,1.9
2019-03-12T03:11:02.777Z,2.1
2019-03-12T03:12:02.885Z,2
2019-03-12T03:13:02.850Z,2
2019-03-12T03:14:03.679Z,2
2019-03-12T03:15:03.041Z,1.9
2019-03-12T03:16:03.808Z,1.9
2019-03-12T03:17:02.973Z,2
2019-03-12T03:18:03.779Z,1.9
2019-03-12T03:19:03.618Z,1.9
2019-03-12T03:20:03.553Z,1.9
2019-03-12T03:21:03.941Z,2
2019-03-12T03:22:03.764Z,1.9
2019-03-12T03:23:03.284Z,1.9
2019-03-12T03:24:03.711Z,1.9
2019-03-12T03:25:03.605Z,1.9
2019-03-12T03:26:03.989Z,1.9
2019-03-12T03:27:03.060Z,1.8
2019-03-12T03:28:03.765Z,1.8
2019-03-12T03:29:03.440Z,1.9
2019-03-12T03:30:03.190Z,1.9
2019-03-12T03:31:03.988Z,1.9
2019-03-12T03:32:03.656Z,1.9
2019-03-12T03:33:03.439Z,1.9
2019-03-12T03:34:03.261Z,1.9
2019-03-12T03:35:03.459Z,1.9
2019-03-12T03:36:03.299Z,1.9
2019-03-12T03:37:03.067Z,1.9
2019-03-12T03:38:03.034Z,1.9
2019-03-12T03:39:03.377Z,1.9
2019-03-12T03:40:03.164Z,1.9
2019-03-12T03:41:03.471Z,1.9
2019-03-12T03:42:02.985Z,1.9
2019-03-12T03:43:02.925Z,1.9
2019-03-12T03:44:03.091Z,1.9
2019-03-12T03:45:03.197Z,1.9
2019-03-12T03:46:03.328Z,1.9
2019-03-12T03:47:02.753Z,1.9
2019-03-12T03:48:02.967Z,1.9
2019-03-12T03:49:02.867Z,1.9
2019-03-12T03:50:02.662Z,1.9
2019-03-12T03:51:02.868Z,1.9
2019-03-12T03:52:03.159Z,1.9
2019-03-12T03:53:03.700Z,1.9
2019-03-12T03:54:02.924Z,1.8
2019-03-12T03:55:02.882Z,1.9
2019-03-12T03:56:03.748Z,1.9
2019-03-12T03:57:03.526Z,1.9
2019-03-12T03:58:03.448Z,1.9
2019-03-12T03:59:03.736Z,1.9
2019-03-12T04:00:03.385Z,1.9
2019-03-12T04:01:03.840Z,1.9
2019-03-12T04:02:03.572Z,1.8
2019-03-12T04:03:02.915Z,1.8
2019-03-12T04:04:03.547Z,1.8
2019-03-12T04:05:03.529Z,1.8
2019-03-12T04:06:03.723Z,1.8
2019-03-12T04:07:03.507Z,1.8
2019-03-12T04:08:03.380Z,1.8
2019-03-12T04:09:03.166Z,1.7
2019-03-12T04:10:03.298Z,1.7
2019-03-12T04:11:03.105Z,1.8
2019-03-12T04:12:03.383Z,1.7
2019-03-12T04:13:03.100Z,1.7
2019-03-12T04:14:03.003Z,1.7
2019-03-12T04:15:03.401Z,1.8
2019-03-12T04:16:03.236Z,1.8
2019-03-12T04:17:02.841Z,1.8
2019-03-12T04:18:03.034Z,1.8
2019-03-12T04:19:03.372Z,1.8
2019-03-12T04:20:03.504Z,1.8
2019-03-12T04:21:02.964Z,1.8
2019-03-12T04:22:03.037Z,1.8
2019-03-12T04:23:03.238Z,1.8
2019-03-12T04:24:02.996Z,1.8
2019-03-12T04:25:02.824Z,1.8
2019-03-12T04:26:03.162Z,1.8
2019-03-12T04:27:03.480Z,1.8
2019-03-12T04:28:02.803Z,1.8
2019-03-12T04:29:02.853Z,1.8
2019-03-12T04:30:03.289Z,1.8
2019-03-12T04:31:03.280Z,1.8
2019-03-12T04:32:02.988Z,1.8
2019-03-12T04:33:02.923Z,1.8
2019-03-12T04:34:03.063Z,1.8
2019-03-12T04:35:03.827Z,1.8
2019-03-12T04:36:02.986Z,1.8
2019-03-12T04:37:02.776Z,1.8
2019-03-12T04:38:02.532Z,1.8
2019-03-12T04:39:03.359Z,1.8
2019-03-12T04:40:03.819Z,1.8
2019-03-12T04:41:03.224Z,1.8
2019-03-12T04:42:03.347Z,1.8
2019-03-12T04:43:03.839Z,1.8
2019-03-12T04:44:03.525Z,1.8
2019-03-12T04:45:03.771Z,1.8
2019-03-12T04:46:03.453Z,1.8
2019-03-12T04:47:03.691Z,1.8
2019-03-12T04:48:03.216Z,1.8
2019-03-12T04:49:03.490Z,1.8
2019-03-12T04:50:03.553Z,1.8
2019-03-12T04:51:03.508Z,1.8
2019-03-12T04:52:03.393Z,1.8
2019-03-12T04:53:03.413Z,1.8
2019-03-12T04:54:03.036Z,1.8
2019-03-12T04:55:03.540Z,1.8
2019-03-12T04:56:03.375Z,1.8
2019-03-12T04:57:03.125Z,1.8
2019-03-12T04:58:03.372Z,1.8
2019-03-12T04:59:03.350Z,1.8
2019-03-12T05:00:03.692Z,1.8
2019-03-12T05:01:03.177Z,1.8
2019-03-12T05:02:03.320Z,1.8
2019-03-12T05:03:02.969Z,1.8
2019-03-12T05:04:03.043Z,1.8
2019-03-12T05:05:03.194Z,1.8
2019-03-12T05:06:02.993Z,1.8
2019-03-12T05:07:03.252Z,1.8
2019-03-12T05:08:03.010Z,1.8
2019-03-12T05:09:03.182Z,1.8
2019-03-12T05:10:03.010Z,1.8
2019-03-12T05:11:03.120Z,1.8
2019-03-12T05:12:03.064Z,1.8
2019-03-12T05:13:02.819Z,1.8
2019-03-12T05:14:02.951Z,1.8
2019-03-12T05:15:02.860Z,1.8
2019-03-12T05:16:02.874Z,1.9
2019-03-12T05:17:02.906Z,1.8
2019-03-12T05:18:03.684Z,1.8
2019-03-12T05:19:02.614Z,1.8
2019-03-12T05:20:03.810Z,1.8
2019-03-12T05:21:03.501Z,1.8
2019-03-12T05:22:02.654Z,1.9
2019-03-12T05:23:03.707Z,1.8
2019-03-12T05:24:03.615Z,1.8
2019-03-12T05:25:03.497Z,1.8
2019-03-12T05:26:03.340Z,1.8
2019-03-12T05:27:03.684Z,1.8
2019-03-12T05:28:03.659Z,1.8
2019-03-12T05:29:03.520Z,1.8
2019-03-12T05:30:03.355Z,1.8
2019-03-12T05:31:03.415Z,1.8
2019-03-12T05:32:03.370Z,1.8
2019-03-12T05:33:03.171Z,1.8
2019-03-12T05:34:03.254Z,1.8
2019-03-12T05:35:03.466Z,1.8
2019-03-12T05:36:03.282Z,1.8
2019-03-12T05:37:03.330Z,1.8
2019-03-12T05:38:03.272Z,1.8
2019-03-12T05:39:03.480Z,1.8
2019-03-12T05:40:03.362Z,1.8
2019-03-12T05:41:02.964Z,1.8
2019-03-12T05:42:03.150Z,1.8
2019-03-12T05:43:03.088Z,1.8
2019-03-12T05:44:03.072Z,1.8
2019-03-12T05:45:03.442Z,1.8
2019-03-12T05:46:03.087Z,1.8
2019-03-12T05:47:02.623Z,1.8
2019-03-12T05:48:02.653Z,1.8
2019-03-12T05:49:02.914Z,1.8
2019-03-12T05:50:02.752Z,1.8
2019-03-12T05:51:03.188Z,1.8
2019-03-12T05:52:03.021Z,1.8
2019-03-12T05:53:02.887Z,1.8
2019-03-12T05:54:02.709Z,1.8
2019-03-12T05:55:02.949Z,1.8
2019-03-12T05:56:03.189Z,1.8
2019-03-12T05:57:02.985Z,1.8
2019-03-12T05:58:03.665Z,1.9
2019-03-12T05:59:02.826Z,1.9
2019-03-12T06:00:03.643Z,1.9
2019-03-12T06:01:03.502Z,1.9
2019-03-12T06:02:03.902Z,1.9
2019-03-12T06:03:02.813Z,1.9
2019-03-12T06:04:03.441Z,1.9
2019-03-12T06:05:03.455Z,1.9
2019-03-12T06:06:03.397Z,1.9
2019-03-12T06:07:03.867Z,1.9
2019-03-12T06:08:02.707Z,1.9
2019-03-12T06:09:02.651Z,1.9
2019-03-12T06:10:03.776Z,1.9
2019-03-12T06:11:03.535Z,1.9
2019-03-12T06:12:03.450Z,1.9
2019-03-12T06:13:03.558Z,1.9
2019-03-12T06:14:03.511Z,1.9
2019-03-12T06:15:03.406Z,1.9
2019-03-12T06:16:03.403Z,1.9
2019-03-12T06:17:03.068Z,1.9
2019-03-12T06:18:03.254Z,1.9
2019-03-12T06:19:03.070Z,1.9
2019-03-12T06:20:03.065Z,1.9
2019-03-12T06:21:03.269Z,1.9
2019-03-12T06:22:03.155Z,1.9
2019-03-12T06:23:02.933Z,1.9
2019-03-12T06:24:03.365Z,1.9
2019-03-12T06:25:03.837Z,1.9
2019-03-12T06:26:02.840Z,1.9
2019-03-12T06:27:03.215Z,2
2019-03-12T06:28:02.933Z,2
2019-03-12T06:29:02.945Z,2
2019-03-12T06:30:03.025Z,2
2019-03-12T06:31:03.030Z,2
2019-03-12T06:32:03.379Z,1.9
2019-03-12T06:33:02.939Z,2
2019-03-12T06:34:02.897Z,2
2019-03-12T06:35:02.630Z,2
2019-03-12T06:36:02.871Z,2
2019-03-12T06:37:02.949Z,2
2019-03-12T06:38:02.842Z,2
2019-03-12T06:39:03.579Z,2.1
2019-03-12T06:40:02.799Z,2
2019-03-12T06:41:02.845Z,2.1
2019-03-12T06:42:02.849Z,2.1
2019-03-12T06:43:03.592Z,2.1
2019-03-12T06:44:02.961Z,2.1
2019-03-12T06:45:02.626Z,2.1
2019-03-12T06:46:03.686Z,2.1
2019-03-12T06:47:03.628Z,2.1
2019-03-12T06:48:03.807Z,2.1
2019-03-12T06:49:03.294Z,2.1
2019-03-12T06:50:03.752Z,2.1
2019-03-12T06:51:03.638Z,2.1
2019-03-12T06:52:02.799Z,2.1
2019-03-12T06:53:03.202Z,2.2
2019-03-12T06:54:03.631Z,2.2
2019-03-12T06:55:03.789Z,2.1
2019-03-12T06:56:03.083Z,2.2
2019-03-12T06:57:03.111Z,2.2
2019-03-12T06:58:03.452Z,2.3
2019-03-12T06:59:03.263Z,2.2
2019-03-12T07:00:03.340Z,2.2
2019-03-12T07:01:03.236Z,2.3
2019-03-12T07:02:02.988Z,2.3
2019-03-12T07:03:03.490Z,2.3
2019-03-12T07:04:03.239Z,2.3
2019-03-12T07:05:03.269Z,2.4
2019-03-12T07:06:03.643Z,2.4
2019-03-12T07:07:12.644Z,2.4
2019-03-12T07:08:06.615Z,2.4
2019-03-12T07:09:03.184Z,2.4
2019-03-12T07:10:02.999Z,2.4
2019-03-12T07:11:02.913Z,2.4
2019-03-12T07:12:02.976Z,2.4
2019-03-12T07:13:03.713Z,2.4
2019-03-12T07:14:02.828Z,2.4
2019-03-12T07:15:03.339Z,2.4
2019-03-12T07:16:02.708Z,2.4
2019-03-12T07:17:02.806Z,2.4
2019-03-12T07:18:02.925Z,2.4
2019-03-12T07:19:03.956Z,2.5
2019-03-12T07:20:03.777Z,2.5
2019-03-12T07:21:03.660Z,2.6
2019-03-12T07:22:02.996Z,2.6
2019-03-12T07:23:03.625Z,2.6
2019-03-12T07:24:03.315Z,2.7
2019-03-12T07:25:03.530Z,2.7
2019-03-12T07:26:03.708Z,2.8
2019-03-12T07:27:03.534Z,2.8
2019-03-12T07:28:03.537Z,2.8
2019-03-12T07:29:03.370Z,2.8
2019-03-12T07:30:03.460Z,2.8
2019-03-12T07:31:03.597Z,2.9
2019-03-12T07:32:03.275Z,2.9
2019-03-12T07:33:03.423Z,2.9
2019-03-12T07:34:03.408Z,3
2019-03-12T07:35:03.311Z,3.1
2019-03-12T07:36:03.301Z,3.1
2019-03-12T07:37:03.007Z,3.2
2019-03-12T07:38:02.898Z,3.2
2019-03-12T07:39:03.166Z,3.2
2019-03-12T07:40:02.881Z,3.2
2019-03-12T07:41:02.771Z,3.2
2019-03-12T07:42:03.344Z,3.3
2019-03-12T07:43:02.691Z,3.3
2019-03-12T07:44:03.129Z,3.3
2019-03-12T07:45:03.064Z,3.3
2019-03-12T07:46:03.433Z,3.4
2019-03-12T07:47:03.250Z,3.4
2019-03-12T07:48:02.838Z,3.4
2019-03-12T07:49:02.716Z,3.5
2019-03-12T07:50:03.224Z,3.5
2019-03-12T07:51:02.917Z,3.6
2019-03-12T07:52:02.870Z,3.5
2019-03-12T07:53:03.243Z,3.5
2019-03-12T07:54:02.504Z,3.5
2019-03-12T07:55:03.894Z,3.5
2019-03-12T07:56:02.651Z,3.5
2019-03-12T07:57:03.127Z,3.5
2019-03-12T07:58:02.860Z,3.5
2019-03-12T07:59:03.153Z,3.4
2019-03-12T08:00:03.089Z,3.5
2019-03-12T08:01:03.056Z,3.4
2019-03-12T08:02:02.930Z,3.4
2019-03-12T08:03:03.608Z,3.4
2019-03-12T08:04:02.765Z,3.4
2019-03-12T08:05:03.716Z,3.4
2019-03-12T08:06:03.728Z,3.4
2019-03-12T08:07:03.673Z,3.4
2019-03-12T08:08:03.179Z,3.4
2019-03-12T08:09:03.507Z,3.4
2019-03-12T08:10:03.956Z,3.4
2019-03-12T08:11:03.438Z,3.4
2019-03-12T08:12:03.664Z,3.6
2019-03-12T08:13:03.594Z,3.6
2019-03-12T08:14:03.335Z,3.6
2019-03-12T08:15:03.242Z,3.7
2019-03-12T08:16:02.934Z,3.6
2019-03-12T08:17:03.537Z,3.6
2019-03-12T08:18:03.459Z,3.7
2019-03-12T08:19:02.863Z,3.8
2019-03-12T08:20:03.417Z,3.8
2019-03-12T08:21:03.566Z,3.8
2019-03-12T08:22:03.278Z,3.9
2019-03-12T08:23:03.205Z,3.9
2019-03-12T08:24:03.243Z,3.9
2019-03-12T08:25:03.333Z,4
2019-03-12T08:26:03.253Z,4.1
2019-03-12T08:27:03.257Z,4.1
2019-03-12T08:28:03.025Z,4.1
2019-03-12T08:29:03.071Z,4.1
2019-03-12T08:30:03.249Z,4.1
2019-03-12T08:31:03.017Z,4.4
2019-03-12T08:32:03.141Z,4.4
2019-03-12T08:33:02.847Z,4.3
2019-03-12T08:34:03.073Z,4.3
2019-03-12T08:35:02.890Z,4.3
2019-03-12T08:36:02.970Z,4.4
2019-03-12T08:37:02.939Z,4.7
2019-03-12T08:38:02.887Z,5.1
2019-03-12T08:39:03.826Z,5.1
2019-03-12T08:40:03.092Z,5.1
2019-03-12T08:41:03.020Z,5.6
2019-03-12T08:42:03.695Z,5.6
2019-03-12T08:43:03.758Z,5.4
2019-03-12T08:44:03.691Z,5.4
2019-03-12T08:45:03.669Z,5.6
2019-03-12T08:46:03.208Z,5.8
2019-03-12T08:47:03.232Z,5.8
2019-03-12T08:48:03.567Z,5.9
2019-03-12T08:49:04.295Z,6
2019-03-12T08:50:03.445Z,6.2
2019-03-12T08:51:05.741Z,6.1
2019-03-12T08:52:03.302Z,6.3
2019-03-12T08:53:03.624Z,6.3
2019-03-12T08:54:02.773Z,6.4
2019-03-12T08:55:04.616Z,6.3
2019-03-12T08:56:03.099Z,6.5
2019-03-12T08:57:03.561Z,6.9
2019-03-12T08:58:03.582Z,6.8
2019-03-12T08:59:03.528Z,6.6
2019-03-12T09:00:03.590Z,6.6
2019-03-12T09:01:03.471Z,6.5
2019-03-12T09:02:03.714Z,6.3
2019-03-12T09:03:03.432Z,6.2
2019-03-12T09:04:03.059Z,6.1
2019-03-12T09:05:03.666Z,6.4
2019-03-12T09:06:03.313Z,6.8
2019-03-12T09:07:05.544Z,6.9
2019-03-12T09:08:03.378Z,7.4
2019-03-12T09:09:03.234Z,7.1
2019-03-12T09:10:03.490Z,6.8
2019-03-12T09:11:03.222Z,6.6
2019-03-12T09:12:03.288Z,6.6
2019-03-12T09:13:03.348Z,6.6
2019-03-12T09:14:03.383Z,6.3
2019-03-12T09:15:03.040Z,6.1
2019-03-12T09:16:03.440Z,5.9
2019-03-12T09:17:03.068Z,5.6
2019-03-12T09:18:03.629Z,5.5
2019-03-12T09:19:03.212Z,5.5
2019-03-12T09:20:03.040Z,5.8
2019-03-12T09:21:03.186Z,5.7
2019-03-12T09:22:03.247Z,6.1
2019-03-12T09:23:03.100Z,6.5
2019-03-12T09:24:03.083Z,6.8
2019-03-12T09:25:03.122Z,7.1
2019-03-12T09:26:02.853Z,7
2019-03-12T09:27:03.132Z,7.1
2019-03-12T09:28:02.779Z,7.2
2019-03-12T09:29:03.160Z,7.2
2019-03-12T09:30:03.506Z,7.2
2019-03-12T09:31:02.880Z,7.2
2019-03-12T09:32:03.743Z,7.6
2019-03-12T09:33:02.799Z,7.9
2019-03-12T09:34:03.482Z,7.8
2019-03-12T09:35:03.372Z,7.8
2019-03-12T09:36:03.225Z,7.8
2019-03-12T09:37:03.175Z,7.8
2019-03-12T09:38:10.984Z,7.3
2019-03-12T09:39:03.788Z,6.7
2019-03-12T09:40:02.997Z,6.3
2019-03-12T09:41:03.632Z,6.2
2019-03-12T09:42:02.932Z,6.2
2019-03-12T09:43:02.875Z,6.2
2019-03-12T09:44:02.800Z,6.3
2019-03-12T09:45:03.800Z,6.3
2019-03-12T09:46:03.630Z,6.1
2019-03-12T09:47:02.792Z,5.9
2019-03-12T09:48:03.542Z,5.9
2019-03-12T09:49:03.554Z,5.9
2019-03-12T09:50:03.325Z,5.9
2019-03-12T09:51:03.724Z,6.1
2019-03-12T09:52:03.421Z,6.4
2019-03-12T09:53:03.657Z,6.4
2019-03-12T09:54:03.423Z,6.4
2019-03-12T09:55:05.244Z,6.9
2019-03-12T09:56:03.613Z,7.3
2019-03-12T09:57:03.499Z,7.8
2019-03-12T09:58:03.487Z,7.6
2019-03-12T09:59:03.348Z,7.8
2019-03-12T10:00:16.998Z,7.9
2019-03-12T10:01:03.709Z,7.6
2019-03-12T10:02:03.708Z,7.6
2019-03-12T10:03:03.551Z,7.6
2019-03-12T10:04:03.516Z,7.8
2019-03-12T10:05:03.409Z,7.8
2019-03-12T10:06:03.558Z,8.1
2019-03-12T10:07:03.813Z,8.2
2019-03-12T10:08:03.604Z,8.5
2019-03-12T10:09:03.610Z,8.4
2019-03-12T10:10:03.153Z,8.4
2019-03-12T10:11:03.498Z,8.6
2019-03-12T10:12:02.833Z,8.7
2019-03-12T10:13:03.498Z,8.8
2019-03-12T10:14:03.529Z,8.8
2019-03-12T10:15:03.286Z,9
2019-03-12T10:16:03.293Z,9
2019-03-12T10:17:03.478Z,9
2019-03-12T10:18:03.209Z,8.6
2019-03-12T10:19:03.164Z,8.9
2019-03-12T10:20:03.031Z,8.8
2019-03-12T10:21:03.222Z,8.9
2019-03-12T10:22:03.164Z,8.8
2019-03-12T10:23:02.592Z,8.8
2019-03-12T10:24:03.291Z,8.7
2019-03-12T10:25:03.295Z,8.7
2019-03-12T10:26:03.044Z,8.8
2019-03-12T10:27:03.075Z,9
2019-03-12T10:28:02.884Z,8.8
2019-03-12T10:29:02.835Z,8.8
2019-03-12T10:30:02.883Z,8.7
2019-03-12T10:31:02.815Z,9
2019-03-12T10:32:02.760Z,9.3
2019-03-12T10:33:02.905Z,9.5
2019-03-12T10:34:02.919Z,9.3
2019-03-12T10:35:03.069Z,9
2019-03-12T10:36:03.733Z,8.5
2019-03-12T10:37:16.393Z,8.4
2019-03-12T10:38:02.741Z,8.3
2019-03-12T10:39:03.473Z,8.3
2019-03-12T10:40:02.688Z,8.3
2019-03-12T10:41:03.560Z,8.7
2019-03-12T10:42:03.779Z,8.7
2019-03-12T10:43:01.967Z,8.5
2019-03-12T10:44:03.141Z,8.3
2019-03-12T10:45:03.841Z,8.3
2019-03-12T10:46:03.601Z,7.9
2019-03-12T10:47:03.585Z,7.7
2019-03-12T10:48:03.666Z,7.6
2019-03-12T10:49:03.829Z,7.6
2019-03-12T10:50:03.686Z,8.2
2019-03-12T10:51:02.645Z,8.7
2019-03-12T10:52:03.489Z,9.1
2019-03-12T10:53:03.343Z,9.1
2019-03-12T10:54:03.416Z,9.1
2019-03-12T10:55:14.223Z,8.8
2019-03-12T10:56:03.325Z,8.5
2019-03-12T10:57:03.529Z,8.8
2019-03-12T10:58:03.317Z,8.9
2019-03-12T10:59:03.418Z,8.6
2019-03-12T11:00:03.863Z,9.1
2019-03-12T11:01:03.258Z,9.5
2019-03-12T11:02:03.687Z,9.4
2019-03-12T11:03:03.289Z,9.5
2019-03-12T11:04:03.145Z,9.8
2019-03-12T11:05:03.782Z,9.8
2019-03-12T11:06:03.387Z,9.7
2019-03-12T11:07:17.130Z,9.6
2019-03-12T11:08:07.242Z,9.6
2019-03-12T11:09:03.315Z,9.3
2019-03-12T11:10:03.182Z,9.1
2019-03-12T11:11:03.064Z,9.4
2019-03-12T11:12:03.721Z,9.2
2019-03-12T11:13:03.649Z,8.9
2019-03-12T11:14:03.010Z,8.9
2019-03-12T11:15:03.479Z,8.8
2019-03-12T11:16:03.232Z,8.7
2019-03-12T11:17:03.466Z,8.5
2019-03-12T11:18:03.250Z,8.4
2019-03-12T11:19:03.180Z,8.4
2019-03-12T11:20:03.178Z,8.7
2019-03-12T11:21:03.081Z,8.6
2019-03-12T11:22:03.346Z,8.9
2019-03-12T11:23:03.152Z,9.1
2019-03-12T11:24:03.068Z,9.4
2019-03-12T11:25:03.235Z,9.8
2019-03-12T11:26:03.390Z,9.8
2019-03-12T11:27:02.741Z,9.6
2019-03-12T11:28:02.810Z,9.1
2019-03-12T11:29:02.666Z,9.2
2019-03-12T11:30:03.300Z,9.4
2019-03-12T11:31:03.925Z,9.6
2019-03-12T11:32:03.591Z,9.5
2019-03-12T11:33:03.382Z,9.4
2019-03-12T11:34:03.648Z,9.1
2019-03-12T11:35:03.437Z,9.5
2019-03-12T11:36:03.512Z,9.4
2019-03-12T11:37:03.444Z,9.4
2019-03-12T11:38:03.469Z,9.3
2019-03-12T11:39:03.654Z,9.4
2019-03-12T11:40:04.026Z,9.4
2019-03-12T11:41:03.814Z,9.7
2019-03-12T11:42:03.725Z,9.8
2019-03-12T11:43:03.446Z,9.6
2019-03-12T11:44:03.222Z,9.7
2019-03-12T11:45:19.404Z,9.6
2019-03-12T11:46:03.472Z,9.7
2019-03-12T11:47:03.655Z,9.9
2019-03-12T11:48:03.513Z,9.8
2019-03-12T11:49:03.158Z,10
2019-03-12T11:50:03.421Z,9.9
2019-03-12T11:51:03.416Z,9.8
2019-03-12T11:52:03.196Z,9.8
2019-03-12T11:53:03.316Z,9.6
2019-03-12T11:54:03.857Z,9.8
2019-03-12T11:55:03.392Z,9.8
2019-03-12T11:56:03.302Z,9.9
2019-03-12T11:57:03.083Z,9.7
2019-03-12T11:58:03.355Z,9.9
2019-03-12T11:59:02.648Z,9.8
2019-03-12T12:00:03.292Z,9.3
2019-03-12T12:01:04.195Z,9.4
2019-03-12T12:02:02.973Z,9.6
2019-03-12T12:03:02.892Z,9.7
2019-03-12T12:04:03.349Z,9.7
2019-03-12T12:05:02.957Z,9.6
2019-03-12T12:06:03.024Z,9.8
2019-03-12T12:07:02.861Z,9.8
2019-03-12T12:08:03.336Z,9.8
2019-03-12T12:09:03.824Z,9.7
2019-03-12T12:10:03.083Z,9.5
2019-03-12T12:11:03.036Z,9.6
2019-03-12T12:12:02.810Z,9.7
2019-03-12T12:13:03.889Z,9.7
2019-03-12T12:14:02.782Z,9.8
2019-03-12T12:15:03.657Z,9.8
2019-03-12T12:16:03.812Z,9.6
2019-03-12T12:17:03.476Z,9.1
2019-03-12T12:18:03.589Z,9.1
2019-03-12T12:19:02.791Z,9.3
2019-03-12T12:20:03.434Z,9.8
2019-03-12T12:21:03.567Z,10.1
2019-03-12T12:22:03.530Z,9.9
2019-03-12T12:23:03.390Z,9.9
2019-03-12T12:24:03.319Z,9.9
2019-03-12T12:25:03.754Z,9.6
2019-03-12T12:26:03.386Z,9.6
2019-03-12T12:27:03.256Z,9.3
2019-03-12T12:28:03.548Z,9.6
2019-03-12T12:29:03.618Z,10.1
2019-03-12T12:30:03.560Z,10.3
2019-03-12T12:31:02.975Z,10.3
2019-03-12T12:32:03.652Z,10.1
2019-03-12T12:33:03.360Z,10.3
2019-03-12T12:34:03.427Z,10.4
2019-03-12T12:35:03.468Z,10.4
2019-03-12T12:36:03.434Z,9.9
2019-03-12T12:37:03.946Z,10.1
2019-03-12T12:38:03.077Z,10.3
2019-03-12T12:39:03.212Z,10.2
2019-03-12T12:40:02.922Z,10.2
2019-03-12T12:41:03.042Z,10.2
2019-03-12T12:42:03.093Z,10.2
2019-03-12T12:43:03.476Z,10.5
2019-03-12T12:44:02.802Z,10.6
2019-03-12T12:45:03.396Z,10.6
2019-03-12T12:46:03.021Z,10.1
2019-03-12T12:47:02.812Z,10
2019-03-12T12:48:02.894Z,9.8
2019-03-12T12:49:03.022Z,9.9
2019-03-12T12:50:02.641Z,9.9
2019-03-12T12:51:04.201Z,9.9
2019-03-12T12:52:03.318Z,9.8
2019-03-12T12:53:02.693Z,9.5
2019-03-12T12:54:02.931Z,9.6
2019-03-12T12:55:03.005Z,9.6
2019-03-12T12:56:03.773Z,9.6
2019-03-12T12:57:02.714Z,9.8
2019-03-12T12:58:02.963Z,9.7
2019-03-12T12:59:03.027Z,9.6
2019-03-12T13:00:03.587Z,9.6
2019-03-12T13:01:03.651Z,9.8
2019-03-12T13:02:02.815Z,9.8
2019-03-12T13:03:02.974Z,9.7
2019-03-12T13:04:02.952Z,9.8
2019-03-12T13:05:03.114Z,9.5
2019-03-12T13:06:03.042Z,9.4
2019-03-12T13:07:03.046Z,9.4
2019-03-12T13:08:02.823Z,9.4
2019-03-12T13:09:02.793Z,9.4
2019-03-12T13:10:03.163Z,9.4
2019-03-12T13:11:03.550Z,9.2
2019-03-12T13:12:03.464Z,9.3
2019-03-12T13:13:03.532Z,9.5
2019-03-12T13:14:03.738Z,9.6
2019-03-12T13:15:03.408Z,9.6
2019-03-12T13:16:03.031Z,9.8
2019-03-12T13:17:03.586Z,9.6
2019-03-12T13:18:02.923Z,9.7
2019-03-12T13:19:02.455Z,9.6
2019-03-12T13:20:02.799Z,9.6
2019-03-12T13:21:02.901Z,9.4
2019-03-12T13:22:03.589Z,9.4
2019-03-12T13:23:03.786Z,9.4
2019-03-12T13:24:03.601Z,9.3
2019-03-12T13:25:03.492Z,9.2
2019-03-12T13:26:03.279Z,9.3
2019-03-12T13:27:03.685Z,9.1
2019-03-12T13:28:03.586Z,9.3
2019-03-12T13:29:03.473Z,9.3
2019-03-12T13:30:03.364Z,9.3
2019-03-12T13:31:03.563Z,9.3
2019-03-12T13:32:14.167Z,9.4
2019-03-12T13:33:03.250Z,9.1
2019-03-12T13:34:03.435Z,9.2
2019-03-12T13:35:03.091Z,9.4
2019-03-12T13:36:03.287Z,9.4
2019-03-12T13:37:03.360Z,9.3
2019-03-12T13:38:03.692Z,9.1
2019-03-12T13:39:03.362Z,9.1
2019-03-12T13:40:03.817Z,9.3
2019-03-12T13:41:04.294Z,9.4
2019-03-12T13:42:03.433Z,9.4
2019-03-12T13:43:03.327Z,9.3
2019-03-12T13:44:02.811Z,9.3
2019-03-12T13:45:03.245Z,9.1
2019-03-12T13:46:03.116Z,9.3
2019-03-12T13:47:03.072Z,9.1